TimeCEST,TemperatureF,Dew PointF,Humidity,Sea Level PressureIn,VisibilityMPH,Wind Direction,Wind SpeedMPH,Gust SpeedMPH,PrecipitationIn,Events,Conditions,WindDirDegrees,DateUTC
7:00 AM,41.0,41.0,100,29.50,6.2,West,18.4,-,N/A,,Scattered Clouds,260,2013-04-01 05:00:00
7:30 AM,41.0,41.0,100,29.53,6.2,West,17.3,-,N/A,,Scattered Clouds,270,2013-04-01 05:30:00
8:00 AM,41.0,41.0,100,29.53,6.2,West,19.6,-,N/A,,Mostly Cloudy,260,2013-04-01 06:00:00
8:30 AM,41.0,41.0,100,29.53,6.2,West,17.3,-,N/A,,Scattered Clouds,260,2013-04-01 06:30:00
9:00 AM,41.0,41.0,100,29.56,6.2,West,16.1,-,N/A,,Scattered Clouds,260,2013-04-01 07:00:00
9:30 AM,42.8,41.0,93,29.56,6.2,West,20.7,-,N/A,,Scattered Clouds,260,2013-04-01 07:30:00
10:00 AM,42.8,41.0,93,29.59,6.2,West,20.7,-,N/A,,Partly Cloudy,270,2013-04-01 08:00:00
10:30 AM,44.6,41.0,87,29.59,6.2,West,20.7,-,N/A,,Scattered Clouds,260,2013-04-01 08:30:00
11:00 AM,46.4,41.0,81,29.59,6.2,West,24.2,-,N/A,,Mostly Cloudy,260,2013-04-01 09:00:00
11:30 AM,46.4,39.2,76,29.62,6.2,West,20.7,-,N/A,,Mostly Cloudy,270,2013-04-01 09:30:00
12:30 PM,48.2,41.0,76,29.62,6.2,West,23.0,-,N/A,,Mostly Cloudy,270,2013-04-01 10:30:00
1:00 PM,50.0,41.0,71,29.62,6.2,West,25.3,-,N/A,,Mostly Cloudy,260,2013-04-01 11:00:00
1:30 PM,50.0,42.8,76,29.62,6.2,West,24.2,-,N/A,,Mostly Cloudy,260,2013-04-01 11:30:00
2:00 PM,50.0,41.0,71,29.62,6.2,West,23.0,-,N/A,,Mostly Cloudy,260,2013-04-01 12:00:00
2:30 PM,51.8,42.8,71,29.62,6.2,West,24.2,-,N/A,,Scattered Clouds,260,2013-04-01 12:30:00
3:30 PM,51.8,41.0,67,29.62,6.2,West,25.3,-,N/A,,Scattered Clouds,260,2013-04-01 13:30:00
4:00 PM,51.8,42.8,71,29.62,6.2,West,25.3,-,N/A,,Scattered Clouds,260,2013-04-01 14:00:00
4:30 PM,53.6,41.0,62,29.62,6.2,West,24.2,-,N/A,,Scattered Clouds,260,2013-04-01 14:30:00
5:00 PM,53.6,39.2,58,29.62,6.2,West,25.3,-,N/A,,Scattered Clouds,260,2013-04-01 15:00:00
5:30 PM,51.8,39.2,62,29.62,6.2,West,26.5,39.1,N/A,,Scattered Clouds,260,2013-04-01 15:30:00
6:30 PM,50.0,41.0,71,29.65,6.2,West,24.2,-,N/A,,Scattered Clouds,260,2013-04-01 16:30:00
7:00 PM,46.4,42.8,87,29.65,6.2,WSW,25.3,-,N/A,,Scattered Clouds,250,2013-04-01 17:00:00
7:30 PM,46.4,41.0,81,29.65,6.2,WSW,21.9,-,N/A,,Scattered Clouds,250,2013-04-01 17:30:00
8:00 PM,46.4,41.0,81,29.68,6.2,West,20.7,-,N/A,,Scattered Clouds,260,2013-04-01 18:00:00
8:30 PM,44.6,41.0,87,29.68,6.2,WSW,20.7,-,N/A,Rain,Light Rain Showers,250,2013-04-01 18:30:00
9:00 PM,42.8,39.2,87,29.68,6.2,West,18.4,-,N/A,,Scattered Clouds,260,2013-04-01 19:00:00
9:30 PM,42.8,37.4,81,29.71,6.2,West,17.3,-,N/A,,Scattered Clouds,270,2013-04-01 19:30:00